Time;durP1;ratioP1;P1;durP2;ratioP2;P2;SDS_P1;SDS_P2;PMS_P1;PMS_P2;Temp;Humidity;BMP_temperature;BMP_pressure;BME280_temperature;BME280_humidity;BME280_pressure;Samples;Min_cycle;Max_cycle;Signal;HPM_P1;HPM_P2
2022/03/11 00:01:44;;;;;;;16.75;9.48;;;3.40;57.20;;;;;;4953091;28;20035;-88
2022/03/11 00:04:09;;;;;;;17.02;9.23;;;3.40;57.20;;;;;;4955229;28;20035;-90
2022/03/11 00:06:35;;;;;;;16.85;8.57;;;3.40;57.30;;;;;;4958013;28;20066;-89
2022/03/11 00:09:02;;;;;;;15.07;9.13;;;3.40;57.40;;;;;;4957715;28;20534;-90
2022/03/11 00:11:28;;;;;;;15.25;9.40;;;3.50;57.60;;;;;;4958233;28;20034;-89
2022/03/11 00:13:54;;;;;;;13.82;7.90;;;3.50;57.70;;;;;;4958350;28;20352;-89
2022/03/11 00:16:19;;;;;;;13.27;8.40;;;3.50;57.70;;;;;;4957796;28;20035;-89
2022/03/11 00:18:46;;;;;;;14.65;9.00;;;3.50;57.80;;;;;;4952413;28;20027;-89
2022/03/11 00:21:12;;;;;;;14.27;8.35;;;3.40;58.50;;;;;;4971150;23;20038;-89
2022/03/11 00:23:39;;;;;;;14.30;8.20;;;3.30;58.20;;;;;;4958831;28;20138;-89
2022/03/11 00:26:05;;;;;;;15.15;7.78;;;3.30;58.40;;;;;;4958459;28;20387;-89
2022/03/11 00:28:31;;;;;;;15.65;8.45;;;3.30;58.50;;;;;;4946305;28;20023;-90
2022/03/11 00:30:57;;;;;;;16.67;9.25;;;3.20;58.50;;;;;;4946978;28;20400;-89
2022/03/11 00:33:26;;;;;;;21.27;9.20;;;3.20;58.60;;;;;;4958018;28;20074;-88
2022/03/11 00:35:51;;;;;;;13.80;8.80;;;3.20;58.70;;;;;;4946416;28;20019;-89
2022/03/11 00:38:17;;;;;;;18.30;9.90;;;3.20;58.80;;;;;;4942283;29;20034;-89
2022/03/11 00:40:42;;;;;;;14.73;8.98;;;3.10;59.00;;;;;;4946229;28;20431;-89
2022/03/11 00:43:08;;;;;;;14.85;9.25;;;3.20;59.20;;;;;;4951187;28;20121;-89
2022/03/11 00:45:34;;;;;;;18.67;9.77;;;3.10;59.10;;;;;;4973735;28;20018;-88
2022/03/11 00:47:59;;;;;;;21.23;11.30;;;3.10;59.10;;;;;;4951139;28;20520;-89
2022/03/11 00:50:25;;;;;;;20.55;11.35;;;3.10;59.20;;;;;;4955892;28;20043;-89
2022/03/11 00:52:51;;;;;;;19.75;11.60;;;3.10;59.20;;;;;;4944115;28;20023;-89
2022/03/11 00:55:17;;;;;;;22.42;11.65;;;3.10;59.60;;;;;;4968114;28;21456;-88
2022/03/11 00:57:42;;;;;;;20.67;11.93;;;3.10;59.20;;;;;;4954283;28;20115;-89
2022/03/11 01:00:09;;;;;;;24.92;12.00;;;3.10;59.20;;;;;;4941197;28;20066;-88
2022/03/11 01:02:36;;;;;;;21.67;12.02;;;3.10;59.30;;;;;;4950494;28;20035;-89
2022/03/11 01:05:04;;;;;;;23.90;12.75;;;3.10;59.40;;;;;;4960914;28;20038;-89
2022/03/11 01:07:29;;;;;;;23.77;12.27;;;3.10;59.40;;;;;;4944529;28;20508;-89
2022/03/11 01:09:55;;;;;;;23.95;12.63;;;3.10;59.50;;;;;;4951729;28;20162;-89
2022/03/11 01:12:21;;;;;;;21.58;12.73;;;3.10;59.50;;;;;;4953388;29;20030;-88
2022/03/11 01:14:47;;;;;;;22.27;12.82;;;3.10;59.50;;;;;;4955877;28;20475;-88
2022/03/11 01:17:12;;;;;;;23.02;12.52;;;3.10;59.50;;;;;;4969201;28;20094;-88
2022/03/11 01:19:39;;;;;;;22.83;12.52;;;3.10;59.50;;;;;;4950738;28;20042;-89
2022/03/11 01:22:05;;;;;;;24.25;12.63;;;3.00;59.50;;;;;;4953591;28;20459;-89
2022/03/11 01:24:31;;;;;;;23.58;12.82;;;3.00;59.60;;;;;;4941480;28;20027;-88
2022/03/11 01:26:56;;;;;;;21.70;12.55;;;3.00;59.60;;;;;;4954326;28;20508;-88
2022/03/11 01:29:23;;;;;;;19.77;11.98;;;2.90;59.60;;;;;;4945458;29;20041;-88
2022/03/11 01:31:53;;;;;;;24.30;12.68;;;2.90;59.70;;;;;;4957793;28;20029;-88
2022/03/11 01:34:20;;;;;;;26.75;13.32;;;2.90;59.70;;;;;;4951449;28;20027;-89
2022/03/11 01:36:45;;;;;;;22.00;12.77;;;2.90;59.70;;;;;;4938803;29;20023;-89
2022/03/11 01:39:12;;;;;;;22.60;12.35;;;2.80;59.70;;;;;;4938163;29;20506;-89
2022/03/11 01:41:38;;;;;;;22.70;11.52;;;2.80;59.70;;;;;;4941062;29;20098;-88
2022/03/11 01:44:06;;;;;;;23.65;12.93;;;2.80;60.20;;;;;;4953848;28;20091;-88
2022/03/11 01:46:32;;;;;;;23.30;12.13;;;2.80;59.70;;;;;;4962711;28;20075;-88
2022/03/11 01:48:59;;;;;;;20.80;11.30;;;2.70;59.70;;;;;;4959385;28;20336;-88
2022/03/11 01:51:27;;;;;;;18.38;10.75;;;2.70;59.70;;;;;;4943579;28;20023;-87
2022/03/11 01:53:53;;;;;;;21.20;11.35;;;2.70;59.70;;;;;;4966552;28;20057;-89
2022/03/11 01:56:19;;;;;;;18.75;11.18;;;2.70;59.70;;;;;;4969490;28;20018;-88
2022/03/11 01:58:49;;;;;;;20.63;11.18;;;2.60;59.60;;;;;;4963450;28;20403;-87
2022/03/11 02:01:16;;;;;;;19.02;11.13;;;2.60;59.60;;;;;;4948973;28;20040;-88
2022/03/11 02:03:41;;;;;;;17.63;11.05;;;2.60;59.60;;;;;;4965916;28;20086;-89
2022/03/11 02:06:08;;;;;;;22.08;11.23;;;2.60;59.60;;;;;;4945448;28;20047;-89
2022/03/11 02:08:35;;;;;;;19.55;10.75;;;2.50;59.50;;;;;;4953873;28;20035;-89
2022/03/11 02:11:01;;;;;;;17.40;10.50;;;2.50;59.50;;;;;;4952975;28;20031;-88
2022/03/11 02:13:27;;;;;;;20.98;10.98;;;2.50;59.50;;;;;;4971045;28;20105;-88
2022/03/11 02:15:53;;;;;;;19.48;11.05;;;2.50;59.50;;;;;;4944918;29;20058;-89
2022/03/11 02:18:19;;;;;;;18.42;11.15;;;2.40;59.50;;;;;;4966724;28;20019;-89
2022/03/11 02:20:48;;;;;;;18.48;10.55;;;2.40;59.40;;;;;;4961097;28;20035;-88
2022/03/11 02:23:15;;;;;;;19.77;10.35;;;2.40;60.00;;;;;;4954589;28;20125;-88
2022/03/11 02:25:43;;;;;;;21.17;10.25;;;2.30;59.40;;;;;;4949088;28;20031;-88
2022/03/11 02:28:09;;;;;;;21.65;10.95;;;2.30;59.40;;;;;;4978029;28;20046;-89
2022/03/11 02:30:34;;;;;;;17.98;9.98;;;2.30;59.50;;;;;;4940403;29;20125;-89
2022/03/11 02:33:00;;;;;;;20.52;10.77;;;2.20;59.40;;;;;;4945950;28;20023;-89
2022/03/11 02:35:25;;;;;;;19.58;10.32;;;2.20;59.90;;;;;;4941934;29;20054;-89
2022/03/11 02:37:51;;;;;;;18.60;10.20;;;2.20;59.40;;;;;;4939308;29;20031;-88
2022/03/11 02:40:16;;;;;;;17.45;9.45;;;2.20;59.40;;;;;;4937621;28;20038;-89
2022/03/11 02:42:42;;;;;;;16.60;9.52;;;2.10;59.80;;;;;;4951925;28;20035;-89
2022/03/11 02:45:08;;;;;;;16.50;9.07;;;2.10;59.20;;;;;;4952638;28;20032;-89
2022/03/11 02:47:34;;;;;;;18.17;9.02;;;2.10;59.20;;;;;;4942117;28;20082;-89
2022/03/11 02:49:59;;;;;;;17.15;8.93;;;2.00;59.10;;;;;;4952347;28;20392;-89
2022/03/11 02:52:29;;;;;;;17.75;8.77;;;2.00;59.10;;;;;;4945982;28;20446;-88
2022/03/11 02:54:56;;;;;;;14.98;8.77;;;1.90;59.00;;;;;;4952917;28;20114;-88
2022/03/11 02:57:21;;;;;;;16.02;8.65;;;1.90;59.00;;;;;;4942705;28;20022;-88
2022/03/11 02:59:47;;;;;;;15.60;9.18;;;1.80;59.00;;;;;;4955353;28;20399;-88
2022/03/11 03:02:13;;;;;;;19.77;8.80;;;1.80;59.00;;;;;;4954792;28;20039;-88
2022/03/11 03:04:39;;;;;;;15.68;8.63;;;1.80;59.00;;;;;;4940881;28;20076;-89
2022/03/11 03:07:07;;;;;;;15.45;8.23;;;1.70;59.00;;;;;;4940870;29;20692;-88
2022/03/11 03:09:33;;;;;;;14.15;7.50;;;1.70;59.00;;;;;;4944197;28;20031;-88
2022/03/11 03:11:58;;;;;;;16.30;8.02;;;1.60;58.90;;;;;;4948429;28;20027;-89
2022/03/11 03:14:24;;;;;;;14.93;7.55;;;1.60;58.90;;;;;;4937214;28;20399;-90
2022/03/11 03:16:49;;;;;;;13.88;7.47;;;1.50;58.80;;;;;;4945164;28;20034;-88
2022/03/11 03:19:15;;;;;;;11.25;6.90;;;1.50;58.80;;;;;;4957191;28;20061;-89
2022/03/11 03:21:41;;;;;;;12.73;6.28;;;1.50;58.70;;;;;;4949132;28;20057;-89
2022/03/11 03:24:07;;;;;;;13.65;7.18;;;1.40;58.60;;;;;;4949372;28;20117;-89
2022/03/11 03:26:33;;;;;;;11.77;6.90;;;1.40;58.60;;;;;;4949959;28;20393;-88
2022/03/11 03:28:58;;;;;;;10.65;6.85;;;1.40;58.60;;;;;;4959935;28;20062;-88
2022/03/11 03:31:24;;;;;;;10.48;6.38;;;1.30;58.50;;;;;;4967282;28;20629;-88
2022/03/11 03:33:50;;;;;;;9.43;5.88;;;1.30;58.50;;;;;;4936389;29;20027;-89
2022/03/11 03:36:16;;;;;;;10.90;6.43;;;1.30;58.40;;;;;;4939700;28;20130;-88
2022/03/11 03:38:41;;;;;;;10.68;6.35;;;1.30;58.40;;;;;;4937787;28;20023;-88
2022/03/11 03:41:07;;;;;;;10.85;5.90;;;1.30;58.30;;;;;;4955278;28;20026;-88
2022/03/11 03:43:33;;;;;;;13.80;5.63;;;1.20;58.20;;;;;;4943149;28;20023;-88
2022/03/11 03:45:59;;;;;;;10.48;5.35;;;1.20;58.10;;;;;;4952825;28;20027;-89
2022/03/11 03:48:25;;;;;;;10.05;5.40;;;1.20;58.10;;;;;;4959884;28;20033;-88
2022/03/11 03:50:50;;;;;;;8.93;5.53;;;1.20;58.00;;;;;;4972806;28;20042;-88
2022/03/11 03:53:16;;;;;;;9.70;5.75;;;1.20;58.00;;;;;;4948765;29;20034;-88
2022/03/11 03:55:42;;;;;;;8.25;5.30;;;1.20;57.90;;;;;;4954728;28;20026;-89
2022/03/11 03:58:07;;;;;;;10.30;5.20;;;1.20;57.80;;;;;;4962560;28;20022;-89
2022/03/11 04:00:33;;;;;;;10.35;5.72;;;1.10;57.70;;;;;;4958376;28;20143;-89
2022/03/11 04:02:59;;;;;;;11.77;5.90;;;1.10;57.70;;;;;;4948454;28;20023;-89
2022/03/11 04:05:25;;;;;;;10.20;5.65;;;1.10;57.60;;;;;;4942032;29;20054;-88
2022/03/11 04:07:50;;;;;;;8.48;4.68;;;1.10;57.60;;;;;;4943053;28;20123;-89
2022/03/11 04:10:18;;;;;;;8.30;5.20;;;1.10;57.50;;;;;;4956820;28;20042;-89
2022/03/11 04:12:43;;;;;;;10.80;5.65;;;1.10;57.50;;;;;;4947712;28;20027;-89
2022/03/11 04:15:09;;;;;;;8.43;5.18;;;1.00;57.40;;;;;;4955130;28;20038;-88
2022/03/11 04:17:35;;;;;;;7.85;4.88;;;1.00;57.30;;;;;;4954576;28;20085;-88
2022/03/11 04:20:01;;;;;;;6.43;4.85;;;1.00;57.30;;;;;;4947162;28;20031;-89
2022/03/11 04:22:26;;;;;;;9.60;4.95;;;1.00;57.30;;;;;;4950879;28;20110;-88
2022/03/11 04:24:52;;;;;;;11.30;5.57;;;1.00;57.30;;;;;;4958064;28;20043;-89
2022/03/11 04:27:18;;;;;;;15.65;4.95;;;0.90;57.20;;;;;;4978517;28;20065;-88
2022/03/11 04:29:43;;;;;;;8.18;4.93;;;0.90;57.20;;;;;;4958048;28;20125;-88
2022/03/11 04:32:09;;;;;;;9.07;4.90;;;0.90;57.20;;;;;;4961086;28;20055;-88
2022/03/11 04:34:35;;;;;;;10.02;5.80;;;0.90;57.20;;;;;;4960083;28;20538;-89
2022/03/11 04:37:00;;;;;;;11.48;5.43;;;0.80;57.10;;;;;;4970830;28;20023;-88
2022/03/11 04:39:26;;;;;;;9.30;5.13;;;0.80;57.10;;;;;;4951145;28;20567;-87
2022/03/11 04:41:56;;;;;;;10.05;4.90;;;0.80;57.10;;;;;;4942712;28;20102;-88
2022/03/11 04:44:21;;;;;;;9.02;4.97;;;0.70;57.10;;;;;;4942945;28;20035;-88
2022/03/11 04:46:47;;;;;;;9.25;4.78;;;0.70;57.10;;;;;;4941334;28;20031;-87
2022/03/11 04:49:13;;;;;;;7.88;4.60;;;0.70;57.10;;;;;;4956100;28;20427;-88
2022/03/11 04:51:38;;;;;;;8.40;5.07;;;0.60;57.00;;;;;;4971951;28;20015;-87
2022/03/11 04:54:06;;;;;;;9.45;5.00;;;0.60;57.50;;;;;;4967451;28;20030;-88
2022/03/11 04:56:32;;;;;;;13.65;4.78;;;0.60;57.10;;;;;;4958484;28;20026;-88
2022/03/11 04:58:58;;;;;;;7.95;4.85;;;0.60;57.10;;;;;;4959735;28;20134;-88
2022/03/11 05:01:24;;;;;;;8.13;5.05;;;0.60;57.10;;;;;;4968815;28;20027;-89
2022/03/11 05:03:49;;;;;;;10.45;5.28;;;0.50;57.10;;;;;;4943679;29;20105;-89
2022/03/11 05:06:15;;;;;;;9.38;4.95;;;0.50;57.10;;;;;;4951165;28;20089;-89
2022/03/11 05:08:41;;;;;;;10.18;5.03;;;0.50;57.10;;;;;;4954191;28;20381;-88
2022/03/11 05:11:06;;;;;;;11.25;4.82;;;0.50;57.10;;;;;;4948625;28;20027;-90
2022/03/11 05:13:32;;;;;;;9.23;5.15;;;0.40;57.00;;;;;;4952742;28;20031;-89
2022/03/11 05:15:58;;;;;;;10.05;5.13;;;0.40;57.00;;;;;;4957841;28;20091;-88
2022/03/11 05:18:25;;;;;;;10.25;4.68;;;0.40;57.00;;;;;;4938871;28;20074;-88
2022/03/11 05:20:50;;;;;;;11.73;5.65;;;0.40;57.00;;;;;;4944112;28;20477;-88
2022/03/11 05:23:16;;;;;;;8.18;5.13;;;0.40;57.10;;;;;;4939215;28;20053;-89
2022/03/11 05:25:42;;;;;;;8.95;4.97;;;0.40;57.10;;;;;;4951449;28;20407;-89
2022/03/11 05:28:08;;;;;;;8.52;5.05;;;0.30;57.10;;;;;;4955833;28;20415;-89
2022/03/11 05:30:34;;;;;;;10.10;5.38;;;0.30;57.10;;;;;;4950347;28;20064;-89
2022/03/11 05:33:00;;;;;;;10.13;5.03;;;0.30;57.20;;;;;;4950920;28;20027;-88
2022/03/11 05:35:25;;;;;;;7.95;5.00;;;0.30;57.10;;;;;;4947573;28;20448;-89
2022/03/11 05:37:51;;;;;;;9.68;5.13;;;0.30;57.20;;;;;;4953146;28;20462;-88
2022/03/11 05:40:17;;;;;;;8.95;4.75;;;0.20;57.10;;;;;;4946563;28;20110;-88
2022/03/11 05:42:43;;;;;;;9.05;5.13;;;0.20;57.10;;;;;;4941825;28;20034;-89
2022/03/11 05:45:09;;;;;;;12.07;5.63;;;0.20;57.20;;;;;;4952982;28;20553;-89
2022/03/11 05:47:35;;;;;;;10.35;5.15;;;0.20;57.20;;;;;;4952162;28;20026;-89
2022/03/11 05:50:00;;;;;;;7.38;4.75;;;0.20;57.20;;;;;;4954526;28;20058;-89
2022/03/11 05:52:26;;;;;;;14.43;5.18;;;0.20;57.30;;;;;;4942697;28;20034;-88
2022/03/11 05:54:52;;;;;;;15.15;5.18;;;0.20;57.30;;;;;;4952665;28;20082;-90
2022/03/11 05:57:17;;;;;;;7.35;4.32;;;0.10;57.20;;;;;;4964626;28;20038;-89
2022/03/11 05:59:43;;;;;;;9.95;5.32;;;0.20;57.30;;;;;;4948952;28;20114;-89
2022/03/11 06:02:09;;;;;;;9.68;5.03;;;0.20;57.30;;;;;;4943702;28;20101;-88
2022/03/11 06:04:36;;;;;;;9.02;5.05;;;0.20;57.40;;;;;;4961396;28;20031;-88
2022/03/11 06:07:02;;;;;;;8.55;5.03;;;0.10;57.30;;;;;;4945276;29;20138;-88
2022/03/11 06:09:28;;;;;;;7.28;5.15;;;0.10;57.30;;;;;;4937351;28;20114;-89
2022/03/11 06:11:53;;;;;;;8.85;5.10;;;0.10;57.30;;;;;;4947066;28;20082;-88
2022/03/11 06:14:19;;;;;;;13.18;5.60;;;0.10;57.30;;;;;;4937395;28;20024;-88
2022/03/11 06:16:45;;;;;;;11.52;5.38;;;0.20;57.50;;;;;;4957377;28;20054;-88
2022/03/11 06:19:11;;;;;;;9.70;5.32;;;0.10;57.40;;;;;;4960692;28;20484;-88
2022/03/11 06:21:37;;;;;;;8.27;5.13;;;0.10;57.90;;;;;;4956955;23;20043;-87
2022/03/11 06:24:04;;;;;;;10.23;4.97;;;0.10;57.50;;;;;;4961381;28;20027;-87
2022/03/11 06:26:29;;;;;;;9.93;5.05;;;0.10;57.50;;;;;;4970907;28;20103;-87
2022/03/11 06:28:57;;;;;;;9.50;5.35;;;0.10;57.50;;;;;;5002904;28;20046;-86
2022/03/11 06:31:23;;;;;;;9.50;5.22;;;0.20;57.60;;;;;;4976509;28;20079;-87
2022/03/11 06:33:48;;;;;;;9.43;4.90;;;0.20;57.60;;;;;;4964002;28;20069;-87
2022/03/11 06:36:14;;;;;;;12.02;5.25;;;0.30;57.70;;;;;;4959696;28;20026;-88
2022/03/11 06:38:40;;;;;;;12.23;5.28;;;0.40;57.70;;;;;;4960514;28;20141;-88
2022/03/11 06:41:05;;;;;;;11.25;5.35;;;0.50;57.80;;;;;;4963796;28;20039;-88
2022/03/11 06:43:31;;;;;;;10.82;5.85;;;0.60;57.80;;;;;;4968256;28;20023;-88
2022/03/11 06:45:56;;;;;;;9.70;5.15;;;0.70;57.80;;;;;;4963871;28;20113;-88
2022/03/11 06:48:22;;;;;;;10.35;5.55;;;0.80;57.90;;;;;;4968909;28;20026;-88
2022/03/11 06:50:48;;;;;;;10.45;5.10;;;0.90;57.90;;;;;;4966077;28;20187;-87
2022/03/11 06:53:15;;;;;;;8.55;4.90;;;1.10;57.90;;;;;;4965020;28;20487;-87
2022/03/11 06:55:40;;;;;;;8.90;5.43;;;1.20;57.80;;;;;;4985976;28;20023;-88
2022/03/11 06:58:06;;;;;;;9.15;5.68;;;1.30;57.70;;;;;;4970450;28;20031;-87
2022/03/11 07:00:31;;;;;;;10.70;5.38;;;1.40;57.70;;;;;;4972535;28;20031;-88
2022/03/11 07:02:58;;;;;;;9.93;5.13;;;1.50;57.70;;;;;;4971273;28;20027;-88
2022/03/11 07:05:24;;;;;;;10.13;5.22;;;1.70;57.60;;;;;;4970733;28;20118;-88
2022/03/11 07:07:49;;;;;;;9.10;5.32;;;1.80;57.60;;;;;;4970139;28;20157;-87
2022/03/11 07:10:16;;;;;;;9.80;5.53;;;2.00;57.50;;;;;;4969702;28;20038;-88
2022/03/11 07:12:42;;;;;;;10.80;5.13;;;2.20;57.50;;;;;;4969904;28;20034;-88
2022/03/11 07:15:08;;;;;;;9.98;5.57;;;2.40;57.20;;;;;;4962947;28;20027;-87
2022/03/11 07:17:33;;;;;;;10.52;5.70;;;2.50;57.20;;;;;;4980008;28;20019;-89
2022/03/11 07:19:59;;;;;;;11.27;5.53;;;2.60;57.10;;;;;;4968586;28;20026;-88
2022/03/11 07:22:25;;;;;;;10.60;5.07;;;2.80;57.40;;;;;;4964996;28;20043;-88
2022/03/11 07:24:51;;;;;;;10.55;5.40;;;3.00;57.50;;;;;;4972324;28;20029;-88
2022/03/11 07:27:16;;;;;;;9.07;5.32;;;3.10;57.20;;;;;;4974598;28;20034;-88
2022/03/11 07:29:42;;;;;;;9.13;5.43;;;3.40;57.00;;;;;;4972381;28;20041;-87
2022/03/11 07:32:09;;;;;;;9.07;4.97;;;3.70;56.70;;;;;;4978954;28;20088;-87
2022/03/11 07:34:35;;;;;;;7.30;5.00;;;4.00;56.20;;;;;;4983470;28;20149;-87
2022/03/11 07:37:00;;;;;;;10.18;5.65;;;4.40;55.70;;;;;;4971939;28;20050;-88
2022/03/11 07:39:26;;;;;;;9.27;5.43;;;4.50;55.50;;;;;;4969331;28;20114;-87
2022/03/11 07:41:52;;;;;;;9.88;5.40;;;4.70;55.50;;;;;;4970015;28;20031;-88
2022/03/11 07:44:18;;;;;;;10.13;5.43;;;5.30;55.30;;;;;;4969543;28;20038;-88
2022/03/11 07:46:44;;;;;;;14.93;5.78;;;5.90;54.30;;;;;;4967592;28;20114;-89
2022/03/11 07:49:11;;;;;;;9.20;5.72;;;6.50;53.20;;;;;;4971316;28;20403;-86
2022/03/11 07:51:37;;;;;;;8.90;5.78;;;7.00;52.50;;;;;;4968940;28;20495;-88
2022/03/11 07:54:03;;;;;;;10.50;5.85;;;7.30;51.90;;;;;;4968991;28;20027;-88
2022/03/11 07:56:29;;;;;;;9.88;5.55;;;7.40;51.80;;;;;;4970978;28;20047;-88
2022/03/11 07:58:56;;;;;;;7.60;5.30;;;7.70;52.10;;;;;;4970456;28;20054;-88
2022/03/11 08:01:22;;;;;;;12.23;5.65;;;8.10;52.00;;;;;;4970197;28;20026;-88
2022/03/11 08:03:48;;;;;;;12.63;6.03;;;8.40;51.60;;;;;;4969333;28;20126;-88
2022/03/11 08:06:14;;;;;;;8.00;5.13;;;8.50;51.40;;;;;;4969161;28;20452;-88
2022/03/11 08:08:40;;;;;;;10.75;6.05;;;8.50;51.40;;;;;;4969515;28;20031;-88
2022/03/11 08:11:06;;;;;;;9.68;5.75;;;8.40;51.30;;;;;;4969239;28;20077;-88
2022/03/11 08:13:34;;;;;;;10.70;5.90;;;8.50;51.40;;;;;;4967983;28;20023;-88
2022/03/11 08:16:00;;;;;;;9.20;5.82;;;8.60;51.10;;;;;;4966434;28;20026;-88
2022/03/11 08:18:26;;;;;;;11.48;5.72;;;8.60;50.90;;;;;;4963188;28;20023;-89
2022/03/11 08:20:51;;;;;;;10.50;5.30;;;8.50;50.90;;;;;;4968644;28;20034;-88
2022/03/11 08:23:17;;;;;;;9.18;6.20;;;8.30;51.20;;;;;;4968366;28;20042;-88
2022/03/11 08:25:42;;;;;;;10.13;6.30;;;8.20;51.50;;;;;;4966961;28;20035;-88
2022/03/11 08:28:10;;;;;;;8.63;6.00;;;8.20;51.90;;;;;;4973757;28;20031;-87
2022/03/11 08:30:43;;;;;;;7.82;5.82;;;8.20;52.40;;;;;;4971765;28;20479;-88
2022/03/11 08:33:10;;;;;;;;;;;8.30;52.40;;;;;;4972590;28;20076;-87
2022/03/11 08:35:36;;;;;;;9.35;5.93;;;8.40;53.30;;;;;;4971667;28;19917;-87
2022/03/11 08:38:05;;;;;;;9.48;6.10;;;8.50;53.10;;;;;;4974126;28;20395;-88
2022/03/11 08:40:31;;;;;;;9.60;5.90;;;8.50;52.60;;;;;;4970750;28;20400;-87
2022/03/11 08:42:57;;;;;;;9.00;5.43;;;8.40;52.30;;;;;;4976484;28;20098;-88
2022/03/11 08:45:23;;;;;;;10.98;5.95;;;8.40;52.20;;;;;;4969448;28;20048;-88
2022/03/11 08:47:49;;;;;;;9.73;5.57;;;8.40;51.90;;;;;;4973773;28;20027;-88
2022/03/11 08:50:15;;;;;;;12.27;6.18;;;8.30;51.80;;;;;;4973183;28;20033;-87
2022/03/11 08:52:42;;;;;;;9.65;5.57;;;8.20;51.70;;;;;;4975538;28;20487;-88
2022/03/11 08:55:08;;;;;;;8.55;5.50;;;8.00;51.70;;;;;;4976110;28;20034;-88
2022/03/11 08:57:35;;;;;;;9.63;5.68;;;8.00;51.90;;;;;;4974493;28;20023;-87
2022/03/11 09:00:03;;;;;;;8.57;5.82;;;8.00;51.80;;;;;;4971853;28;20488;-88
2022/03/11 09:02:29;;;;;;;10.63;5.65;;;8.00;51.90;;;;;;4974587;28;20033;-88
2022/03/11 09:04:55;;;;;;;13.57;5.57;;;8.10;51.90;;;;;;4973473;28;20510;-88
2022/03/11 09:07:23;;;;;;;11.15;5.88;;;8.10;51.90;;;;;;4971779;28;20039;-88
2022/03/11 09:09:49;;;;;;;9.43;6.22;;;8.20;52.00;;;;;;4971212;28;20045;-87
2022/03/11 09:12:14;;;;;;;14.20;5.63;;;8.20;51.70;;;;;;4973841;28;20019;-88
2022/03/11 09:14:40;;;;;;;11.38;5.82;;;8.30;51.40;;;;;;4975472;28;20105;-88
2022/03/11 09:17:06;;;;;;;9.27;5.85;;;8.20;51.20;;;;;;4975198;28;20037;-88
2022/03/11 09:19:32;;;;;;;12.48;5.88;;;8.20;51.40;;;;;;4973169;28;20027;-88
2022/03/11 09:21:57;;;;;;;9.25;5.88;;;8.30;51.50;;;;;;4973643;28;20510;-88
2022/03/11 09:24:23;;;;;;;11.25;6.10;;;8.30;51.30;;;;;;4972279;28;20030;-88
2022/03/11 09:26:49;;;;;;;10.10;5.78;;;8.40;51.50;;;;;;4975587;28;20106;-88
2022/03/11 09:29:15;;;;;;;8.50;5.25;;;8.40;51.30;;;;;;4972828;28;20054;-88
2022/03/11 09:31:41;;;;;;;8.93;5.65;;;8.50;51.30;;;;;;4973955;28;20057;-88
2022/03/11 09:34:06;;;;;;;9.05;5.47;;;8.50;51.20;;;;;;4975779;28;20560;-87
2022/03/11 09:36:32;;;;;;;13.25;6.28;;;8.60;51.10;;;;;;4980022;28;20122;-88
2022/03/11 09:38:58;;;;;;;10.18;6.28;;;8.70;51.20;;;;;;4975044;28;20058;-88
2022/03/11 09:41:29;;;;;;;11.23;5.85;;;8.90;51.40;;;;;;4973652;28;20398;-87
2022/03/11 09:43:56;;;;;;;8.63;5.53;;;9.00;51.20;;;;;;4970190;28;20015;-88
2022/03/11 09:46:22;;;;;;;15.27;6.25;;;9.00;50.70;;;;;;4991838;28;20035;-87
2022/03/11 09:48:48;;;;;;;8.43;5.30;;;9.10;50.70;;;;;;4973429;28;20037;-88
2022/03/11 09:51:15;;;;;;;11.77;5.35;;;9.20;50.70;;;;;;4973205;28;20023;-88
2022/03/11 09:53:42;;;;;;;8.80;5.45;;;9.20;50.40;;;;;;4969958;28;20027;-88
2022/03/11 09:56:08;;;;;;;12.70;5.60;;;9.20;50.40;;;;;;4972977;28;20113;-88
2022/03/11 09:58:34;;;;;;;10.88;6.18;;;9.20;50.70;;;;;;4971123;28;20085;-88
2022/03/11 10:00:59;;;;;;;8.95;5.82;;;9.30;50.60;;;;;;4973973;28;20066;-88
2022/03/11 10:03:27;;;;;;;9.20;5.65;;;9.40;50.70;;;;;;4974208;28;20037;-88
2022/03/11 10:05:54;;;;;;;10.23;5.68;;;9.40;50.60;;;;;;4968827;28;20031;-88
2022/03/11 10:08:39;;;;;;;9.40;5.40;;;9.50;50.60;;;;;;4989490;28;20007;-87
2022/03/11 10:11:25;;;;;;;11.00;5.75;;;9.60;50.40;;;;;;4991751;28;20257;-87
2022/03/11 10:14:03;;;;;;;10.50;5.75;;;9.70;50.80;;;;;;4991053;28;20020;-87
2022/03/11 10:16:30;;;;;;;9.13;5.65;;;9.80;50.50;;;;;;4983432;28;20034;-88
2022/03/11 10:19:04;;;;;;;13.27;5.80;;;9.90;50.30;;;;;;4970231;28;20031;-88
2022/03/11 10:21:32;;;;;;;9.07;5.70;;;9.90;50.30;;;;;;4967862;28;20041;-87
2022/03/11 10:23:58;;;;;;;8.82;5.90;;;10.00;50.30;;;;;;4969482;28;20086;-87
2022/03/11 10:26:36;;;;;;;10.75;5.55;;;10.10;50.40;;;;;;4972514;28;20146;-87
2022/03/11 10:29:05;;;;;;;10.60;6.10;;;10.10;49.90;;;;;;4976719;28;20432;-87
2022/03/11 10:31:35;;;;;;;10.00;5.60;;;10.10;49.90;;;;;;4959614;28;20047;-88
2022/03/11 10:34:14;;;;;;;10.70;6.10;;;10.10;49.90;;;;;;4963666;28;20022;-88
2022/03/11 10:36:48;;;;;;;10.48;5.95;;;10.20;49.60;;;;;;4959076;28;20098;-87
2022/03/11 10:39:27;;;;;;;7.72;5.22;;;10.30;49.50;;;;;;4969500;28;20054;-88
2022/03/11 10:41:54;;;;;;;9.23;5.22;;;10.20;49.20;;;;;;4971607;28;20029;-88
2022/03/11 10:44:22;;;;;;;9.82;6.75;;;10.20;49.20;;;;;;4968915;28;20118;-88
2022/03/11 10:46:48;;;;;;;10.25;5.75;;;10.20;49.30;;;;;;4967683;28;20031;-88
2022/03/11 10:49:33;;;;;;;10.60;5.80;;;10.20;49.30;;;;;;4968354;28;20447;-88
2022/03/11 10:52:02;;;;;;;11.05;6.03;;;10.20;49.20;;;;;;4969074;28;20174;-88
2022/03/11 10:54:29;;;;;;;10.02;6.03;;;10.20;49.20;;;;;;4970370;28;20018;-88
2022/03/11 10:56:56;;;;;;;9.57;6.30;;;10.20;49.10;;;;;;4969781;28;20054;-88
2022/03/11 10:59:21;;;;;;;9.10;5.68;;;10.10;49.00;;;;;;4976114;28;20054;-87
2022/03/11 11:01:48;;;;;;;7.90;5.68;;;10.20;49.30;;;;;;4967011;28;20501;-87
2022/03/11 11:04:15;;;;;;;10.07;5.97;;;10.20;49.40;;;;;;4969429;28;20034;-87
2022/03/11 11:06:41;;;;;;;8.40;6.00;;;10.30;49.30;;;;;;4971730;28;20050;-88
2022/03/11 11:09:09;;;;;;;10.32;5.82;;;10.30;49.30;;;;;;4971827;28;20034;-88
2022/03/11 11:11:35;;;;;;;11.50;6.43;;;10.30;49.20;;;;;;4970411;28;20027;-89
2022/03/11 11:14:07;;;;;;;10.35;5.60;;;10.40;49.20;;;;;;4960824;28;21600;-89
2022/03/11 11:16:39;;;;;;;13.73;6.05;;;10.50;49.20;;;;;;4966565;28;20470;-89
2022/03/11 11:19:17;;;;;;;13.55;6.03;;;10.50;48.90;;;;;;4969578;28;20122;-88
2022/03/11 11:21:45;;;;;;;9.82;6.00;;;10.50;48.70;;;;;;4972740;28;20078;-88
2022/03/11 11:24:16;;;;;;;10.25;5.75;;;10.50;48.60;;;;;;4992628;28;20030;-88
2022/03/11 11:26:49;;;;;;;9.07;5.63;;;10.60;49.20;;;;;;4992520;28;20019;-88
2022/03/11 11:29:19;;;;;;;11.82;5.93;;;10.60;49.10;;;;;;4990757;28;20035;-88
2022/03/11 11:31:45;;;;;;;10.73;5.68;;;10.70;48.60;;;;;;4982295;28;20062;-89
2022/03/11 11:34:23;;;;;;;12.00;6.22;;;10.70;48.60;;;;;;4969460;28;20117;-89
2022/03/11 11:36:52;;;;;;;17.92;6.00;;;10.70;48.40;;;;;;4972944;28;20027;-90
2022/03/11 11:39:21;;;;;;;9.30;5.75;;;10.70;48.50;;;;;;4973595;28;20035;-89
2022/03/11 11:42:01;;;;;;;11.50;6.20;;;10.80;48.50;;;;;;4969102;28;20522;-89
2022/03/11 11:44:38;;;;;;;12.50;6.25;;;10.80;48.40;;;;;;4963148;28;20035;-89
2022/03/11 11:47:15;;;;;;;13.35;6.45;;;10.80;48.40;;;;;;4968807;28;20057;-89
2022/03/11 11:49:55;;;;;;;11.45;5.95;;;10.80;48.30;;;;;;4969235;28;20026;-88
2022/03/11 11:52:35;;;;;;;13.00;6.10;;;10.80;48.40;;;;;;4970525;28;20038;-89
2022/03/11 11:55:19;;;;;;;9.60;6.18;;;10.90;48.20;;;;;;4971708;28;20050;-91
2022/03/11 11:57:46;;;;;;;9.35;6.13;;;10.90;48.10;;;;;;4970432;28;20510;-89
2022/03/11 12:00:32;;;;;;;13.27;5.50;;;11.00;48.40;;;;;;4969887;28;20074;-89
2022/03/11 12:03:10;;;;;;;13.70;6.07;;;11.10;48.10;;;;;;4973745;28;20035;-89
2022/03/11 12:05:47;;;;;;;10.77;6.32;;;11.20;48.10;;;;;;4969339;28;20031;-90
2022/03/11 12:08:49;;;;;;;10.73;6.50;;;11.30;48.20;;;;;;4974711;28;20411;-90
2022/03/11 12:11:38;;;;;;;9.57;5.70;;;11.40;47.80;;;;;;4937187;29;20034;-89
2022/03/11 12:14:04;;;;;;;12.52;6.25;;;11.40;47.70;;;;;;4966199;28;20039;-89
2022/03/11 12:17:00;;;;;;;10.45;6.53;;;11.40;47.80;;;;;;4975386;28;20055;-89
2022/03/11 12:19:44;;;;;;;14.07;6.70;;;11.50;47.80;;;;;;4989394;28;20122;-89
2022/03/11 12:22:31;;;;;;;15.15;6.50;;;11.50;47.70;;;;;;5038255;23;20022;-85
2022/03/11 12:25:11;;;;;;;11.25;6.25;;;11.60;47.80;;;;;;4968010;28;20038;-86
2022/03/11 12:27:57;;;;;;;12.75;6.15;;;11.70;47.70;;;;;;4975234;28;20051;-87
2022/03/11 12:30:22;;;;;;;10.73;6.32;;;11.80;47.40;;;;;;4959751;28;20027;-87
2022/03/11 12:32:50;;;;;;;10.45;6.80;;;11.80;47.50;;;;;;4974152;28;20113;-89
2022/03/11 12:35:18;;;;;;;11.32;6.70;;;11.80;47.30;;;;;;4965055;28;20030;-87
2022/03/11 12:37:44;;;;;;;10.40;6.40;;;11.90;47.30;;;;;;4960387;28;20077;-89
2022/03/11 12:40:10;;;;;;;12.85;6.68;;;11.90;47.30;;;;;;4962606;28;20487;-89
2022/03/11 12:42:40;;;;;;;13.43;7.18;;;11.90;47.20;;;;;;4959836;28;20034;-86
2022/03/11 12:45:06;;;;;;;10.10;6.35;;;12.00;47.50;;;;;;4971012;28;20445;-89
2022/03/11 12:47:36;;;;;;;13.05;6.90;;;12.00;47.00;;;;;;4963225;28;20026;-87
2022/03/11 12:50:07;;;;;;;10.23;6.32;;;12.10;46.90;;;;;;4961444;28;20039;-85